Time;durP1;ratioP1;P1;durP2;ratioP2;P2;SDS_P1;SDS_P2;PMS_P1;PMS_P2;Temp;Humidity;BMP_temperature;BMP_pressure;BME280_temperature;BME280_humidity;BME280_pressure;Samples;Min_cycle;Max_cycle;Signal;HPM_P1;HPM_P2
2024/01/28 00:01:46;;;;;;;;;;;;;;;4.12;86.99;102536.77;105639;1254;69911;-49
2024/01/28 00:04:15;;;;;;;;;;;;;;;4.10;87.01;102534.82;105663;1254;69988;-49
2024/01/28 00:06:43;;;;;;;;;;;;;;;4.09;87.16;102537.22;105685;1251;73057;-50
2024/01/28 00:09:11;;;;;;;;;;;;;;;4.07;87.29;102538.23;105644;1254;81554;-50
2024/01/28 00:11:42;;;;;;;;;;;;;;;4.07;87.22;102537.00;105606;1254;71607;-49
2024/01/28 00:14:11;;;;;;;;;;;;;;;4.07;87.36;102531.64;105675;1255;70005;-51
2024/01/28 00:16:39;;;;;;;;;;;;;;;4.06;87.30;102532.14;105725;1254;70587;-51
2024/01/28 00:19:08;;;;;;;;;;;;;;;4.04;87.23;102529.67;105746;1251;73419;-49
2024/01/28 00:21:36;;;;;;;;;;;;;;;4.04;87.37;102532.08;105683;1254;81607;-49
2024/01/28 00:24:06;;;;;;;;;;;;;;;4.02;87.45;102528.95;105718;1250;71932;-50
2024/01/28 00:26:38;;;;;;;;;;;;;;;3.99;87.44;102530.09;105604;1251;69759;-51
2024/01/28 00:29:06;;;;;;;;;;;;;;;3.99;87.55;102530.42;105679;1257;69969;-50
2024/01/28 00:31:34;;;;;;;;;;;;;;;3.98;87.58;102530.56;105774;1251;72848;-50
2024/01/28 00:34:02;;;;;;;;;;;;;;;3.96;87.64;102536.77;105672;1254;83573;-51
2024/01/28 00:36:31;;;;;;;;;;;;;;;3.96;87.79;102536.77;105581;1254;73058;-49
2024/01/28 00:38:59;;;;;;;;;;;;;;;3.96;87.78;102536.56;105726;1254;69976;-51
2024/01/28 00:41:29;;;;;;;;;;;;;;;3.94;87.75;102530.48;105671;1255;69870;-49
2024/01/28 00:43:58;;;;;;;;;;;;;;;3.92;87.77;102539.76;105758;1254;72048;-50
2024/01/28 00:46:26;;;;;;;;;;;;;;;3.88;87.73;102536.91;105715;1254;82477;-49
2024/01/28 00:48:55;;;;;;;;;;;;;;;3.86;87.86;102540.13;105675;1254;73180;-51
2024/01/28 00:51:23;;;;;;;;;;;;;;;3.85;87.95;102543.71;105616;1254;69998;-52
2024/01/28 00:53:51;;;;;;;;;;;;;;;3.83;87.92;102543.16;105620;1251;70008;-50
2024/01/28 00:56:20;;;;;;;;;;;;;;;3.80;87.96;102541.89;105657;1254;73484;-50
2024/01/28 00:58:48;;;;;;;;;;;;;;;3.78;87.89;102544.95;105674;1254;82448;-49
2024/01/28 01:01:18;;;;;;;;;;;;;;;3.78;88.14;102545.12;105661;1254;71558;-50
2024/01/28 01:03:47;;;;;;;;;;;;;;;3.77;88.22;102545.26;105660;1254;69909;-51
2024/01/28 01:06:15;;;;;;;;;;;;;;;3.75;88.07;102542.45;105704;1251;69861;-50
2024/01/28 01:08:44;;;;;;;;;;;;;;;3.74;88.21;102534.64;105747;1254;74407;-50
2024/01/28 01:11:12;;;;;;;;;;;;;;;3.72;88.25;102529.39;105605;1254;81385;-50
2024/01/28 01:13:40;;;;;;;;;;;;;;;3.69;88.23;102533.30;105720;1253;72366;-51
2024/01/28 01:16:08;;;;;;;;;;;;;;;3.67;88.15;102528.07;105763;1254;69791;-49
2024/01/28 01:18:36;;;;;;;;;;;;;;;3.65;88.40;102530.42;105626;1254;70453;-50
2024/01/28 01:21:05;;;;;;;;;;;;;;;3.64;88.27;102528.69;105754;1251;74356;-50
2024/01/28 01:23:33;;;;;;;;;;;;;;;3.63;88.36;102523.83;105660;1251;81578;-50
2024/01/28 01:26:01;;;;;;;;;;;;;;;3.61;88.52;102522.55;105756;1254;71726;-49
2024/01/28 01:28:32;;;;;;;;;;;;;;;3.58;88.36;102522.32;105697;1254;69993;-55
2024/01/28 01:31:04;;;;;;;;;;;;;;;3.56;88.44;102525.37;105792;1257;69920;-52
2024/01/28 01:33:32;;;;;;;;;;;;;;;3.56;88.48;102524.33;105729;1255;72504;-50
2024/01/28 01:36:01;;;;;;;;;;;;;;;3.53;88.39;102527.89;105859;1254;81947;-51
2024/01/28 01:38:30;;;;;;;;;;;;;;;3.50;88.51;102528.66;105622;1254;71805;-50
2024/01/28 01:40:58;;;;;;;;;;;;;;;3.49;88.44;102528.10;105692;1251;69994;-50
2024/01/28 01:43:26;;;;;;;;;;;;;;;3.47;88.62;102526.69;105725;1251;69087;-50
2024/01/28 01:45:55;;;;;;;;;;;;;;;3.46;88.65;102531.16;105670;1251;74312;-51
2024/01/28 01:48:23;;;;;;;;;;;;;;;3.45;88.73;102534.24;105628;1254;82988;-50
2024/01/28 01:50:51;;;;;;;;;;;;;;;3.46;89.14;102533.91;105713;1251;72459;-50
2024/01/28 01:53:19;;;;;;;;;;;;;;;3.47;89.01;102534.10;105710;1254;69950;-47
2024/01/28 01:55:48;;;;;;;;;;;;;;;3.47;88.88;102532.21;105637;1254;69982;-48
2024/01/28 01:58:16;;;;;;;;;;;;;;;3.46;88.94;102534.61;105749;1251;74647;-49
2024/01/28 02:00:44;;;;;;;;;;;;;;;3.47;89.16;102534.45;105622;1254;81520;-50
2024/01/28 02:03:12;;;;;;;;;;;;;;;3.47;89.13;102530.48;105637;1254;72255;-49
2024/01/28 02:05:41;;;;;;;;;;;;;;;3.47;89.25;102528.74;105734;1251;69957;-48
2024/01/28 02:08:09;;;;;;;;;;;;;;;3.46;89.21;102531.66;105634;1254;69969;-49
2024/01/28 02:10:37;;;;;;;;;;;;;;;3.43;88.90;102531.94;105630;1254;73144;-49
2024/01/28 02:13:06;;;;;;;;;;;;;;;3.39;88.90;102525.77;105603;1254;81601;-50
2024/01/28 02:15:37;;;;;;;;;;;;;;;3.33;88.79;102523.55;105664;1251;74374;-52
2024/01/28 02:18:06;;;;;;;;;;;;;;;3.30;88.68;102523.80;105660;1251;70035;-50
2024/01/28 02:20:34;;;;;;;;;;;;;;;3.24;88.74;102524.86;105714;1254;69973;-48
2024/01/28 02:23:03;;;;;;;;;;;;;;;3.17;88.67;102524.84;105685;1251;74712;-49
2024/01/28 02:25:33;;;;;;;;;;;;;;;3.10;88.76;102523.61;105631;1254;81592;-51
2024/01/28 02:28:01;;;;;;;;;;;;;;;3.01;88.57;102522.67;105559;1254;72362;-49
2024/01/28 02:30:29;;;;;;;;;;;;;;;2.95;88.67;102525.08;105648;1251;69909;-48
2024/01/28 02:32:57;;;;;;;;;;;;;;;2.84;88.22;102524.44;105652;1254;69998;-49
2024/01/28 02:35:26;;;;;;;;;;;;;;;2.76;88.65;102523.83;105607;1254;72879;-49
2024/01/28 02:37:54;;;;;;;;;;;;;;;2.66;88.63;102519.26;105655;1250;81678;-49
2024/01/28 02:40:22;;;;;;;;;;;;;;;2.59;88.88;102519.90;105636;1251;71921;-48
2024/01/28 02:42:51;;;;;;;;;;;;;;;2.54;88.79;102522.52;105618;1254;69920;-49
2024/01/28 02:45:19;;;;;;;;;;;;;;;2.49;88.74;102523.40;105630;1254;69920;-48
2024/01/28 02:47:47;;;;;;;;;;;;;;;2.43;88.74;102531.50;105773;1250;73227;-49
2024/01/28 02:50:16;;;;;;;;;;;;;;;2.34;88.49;102533.64;105677;1254;81776;-51
2024/01/28 02:52:44;;;;;;;;;;;;;;;2.25;88.60;102532.84;105810;1251;71976;-49
2024/01/28 02:55:12;;;;;;;;;;;;;;;2.21;88.97;102527.89;105593;1251;69931;-51
2024/01/28 02:57:40;;;;;;;;;;;;;;;2.16;89.05;102528.75;105704;1254;70043;-49
2024/01/28 03:00:09;;;;;;;;;;;;;;;2.11;89.35;102530.32;105560;1251;73450;-48
2024/01/28 03:02:37;;;;;;;;;;;;;;;2.08;89.51;102532.67;105761;1250;81697;-51
2024/01/28 03:05:08;;;;;;;;;;;;;;;2.02;89.15;102539.19;105670;1254;72491;-54
2024/01/28 03:07:37;;;;;;;;;;;;;;;1.93;89.19;102541.84;105742;1254;69941;-51
2024/01/28 03:10:05;;;;;;;;;;;;;;;1.85;89.25;102547.60;105746;1251;69868;-53
2024/01/28 03:12:34;;;;;;;;;;;;;;;1.80;89.63;102547.61;105718;1251;72047;-50
2024/01/28 03:15:03;;;;;;;;;;;;;;;1.79;90.05;102556.70;105670;1254;81315;-50
2024/01/28 03:17:31;;;;;;;;;;;;;;;1.78;90.26;102561.00;105624;1250;70822;-49
2024/01/28 03:19:59;;;;;;;;;;;;;;;1.76;90.19;102563.70;105715;1254;69894;-50
2024/01/28 03:22:28;;;;;;;;;;;;;;;1.69;89.78;102563.93;105727;1254;70015;-51
2024/01/28 03:24:56;;;;;;;;;;;;;;;1.64;89.96;102557.73;105706;1250;72780;-50
2024/01/28 03:27:24;;;;;;;;;;;;;;;1.61;90.11;102556.79;105631;1250;80591;-48
2024/01/28 03:29:52;;;;;;;;;;;;;;;1.61;90.66;102557.27;105628;1252;70873;-50
2024/01/28 03:32:20;;;;;;;;;;;;;;;1.60;90.65;102553.98;105623;1251;69979;-50
2024/01/28 03:34:48;;;;;;;;;;;;;;;1.59;90.79;102549.81;105614;1250;69797;-50
2024/01/28 03:37:16;;;;;;;;;;;;;;;1.56;90.90;102547.68;105669;1251;72873;-49
2024/01/28 03:39:45;;;;;;;;;;;;;;;1.53;90.64;102549.44;105659;1254;81431;-50
2024/01/28 03:42:13;;;;;;;;;;;;;;;1.48;90.29;102551.32;105767;1250;71817;-50
2024/01/28 03:44:41;;;;;;;;;;;;;;;1.46;90.82;102556.95;105652;1254;70255;-50
2024/01/28 03:47:09;;;;;;;;;;;;;;;1.47;91.15;102563.89;105626;1254;70009;-51
2024/01/28 03:49:37;;;;;;;;;;;;;;;1.48;91.23;102570.82;105701;1251;73123;-54
2024/01/28 03:52:06;;;;;;;;;;;;;;;1.48;91.32;102572.89;105624;1251;81436;-50
2024/01/28 03:54:34;;;;;;;;;;;;;;;1.49;91.28;102573.58;105663;1254;73613;-50
2024/01/28 03:57:02;;;;;;;;;;;;;;;1.50;91.50;102577.95;105641;1250;70358;-50
2024/01/28 03:59:30;;;;;;;;;;;;;;;1.52;91.71;102575.09;105632;1251;69980;-51
2024/01/28 04:01:58;;;;;;;;;;;;;;;1.56;91.97;102575.40;105673;1251;72627;-51
2024/01/28 04:04:27;;;;;;;;;;;;;;;1.60;92.32;102579.67;105659;1254;83222;-50
2024/01/28 04:06:55;;;;;;;;;;;;;;;1.66;92.51;102573.85;105638;1254;71858;-50
2024/01/28 04:09:23;;;;;;;;;;;;;;;1.72;92.71;102570.44;105551;1254;69973;-51
2024/01/28 04:11:51;;;;;;;;;;;;;;;1.77;92.69;102575.95;105642;1254;69915;-51
2024/01/28 04:14:19;;;;;;;;;;;;;;;1.82;92.69;102576.96;105704;1250;71752;-50
2024/01/28 04:16:47;;;;;;;;;;;;;;;1.84;92.65;102577.58;105722;1254;81090;-51
2024/01/28 04:19:16;;;;;;;;;;;;;;;1.89;92.67;102583.58;105596;1250;71690;-50
2024/01/28 04:21:44;;;;;;;;;;;;;;;1.93;92.73;102582.67;105661;1253;69903;-50
2024/01/28 04:24:12;;;;;;;;;;;;;;;1.96;92.78;102584.35;105736;1254;69962;-49
2024/01/28 04:26:40;;;;;;;;;;;;;;;1.99;93.04;102580.30;105629;1250;72947;-49
2024/01/28 04:29:08;;;;;;;;;;;;;;;2.02;92.76;102584.02;105671;1250;82598;-50
2024/01/28 04:31:43;;;;;;;;;;;;;;;2.04;92.93;102581.50;105680;1251;70243;-50
2024/01/28 04:34:11;;;;;;;;;;;;;;;2.05;92.70;102591.52;105670;1254;70006;-50
2024/01/28 04:36:39;;;;;;;;;;;;;;;2.04;92.47;102594.79;105719;1254;71358;-49
2024/01/28 04:39:09;;;;;;;;;;;;;;;2.04;92.36;102595.29;105725;1254;72925;-54
2024/01/28 04:41:37;;;;;;;;;;;;;;;2.04;92.61;102594.26;105769;1250;82623;-51
2024/01/28 04:44:05;;;;;;;;;;;;;;;2.05;92.71;102594.44;105702;1251;72094;-50
2024/01/28 04:46:33;;;;;;;;;;;;;;;2.06;92.71;102596.91;105708;1254;69882;-51
2024/01/28 04:49:03;;;;;;;;;;;;;;;2.06;92.58;102598.45;105677;1254;70093;-47
2024/01/28 04:51:31;;;;;;;;;;;;;;;2.05;92.70;102599.98;105687;1251;73300;-50
2024/01/28 04:53:59;;;;;;;;;;;;;;;2.05;92.55;102597.57;105683;1254;81397;-46
2024/01/28 04:56:27;;;;;;;;;;;;;;;2.07;92.76;102595.38;105699;1250;72044;-49
2024/01/28 04:58:56;;;;;;;;;;;;;;;2.07;92.89;102597.30;105703;1250;69865;-48
2024/01/28 05:01:24;;;;;;;;;;;;;;;2.10;92.97;102597.72;105646;1254;70469;-49
2024/01/28 05:03:52;;;;;;;;;;;;;;;2.10;92.90;102603.60;105631;1250;73492;-48
2024/01/28 05:06:20;;;;;;;;;;;;;;;2.12;93.01;102606.60;105660;1254;81940;-48
2024/01/28 05:08:48;;;;;;;;;;;;;;;2.14;93.03;102611.14;105627;1251;73402;-49
2024/01/28 05:11:17;;;;;;;;;;;;;;;2.14;92.95;102609.41;105641;1250;70319;-49
2024/01/28 05:13:45;;;;;;;;;;;;;;;2.14;92.86;102615.63;105634;1254;69991;-48
2024/01/28 05:16:13;;;;;;;;;;;;;;;2.13;93.00;102621.63;105655;1254;73812;-49
2024/01/28 05:18:41;;;;;;;;;;;;;;;2.14;92.89;102624.95;105645;1254;81352;-49
2024/01/28 05:21:09;;;;;;;;;;;;;;;2.16;93.16;102622.08;105670;1251;72339;-50
2024/01/28 05:23:37;;;;;;;;;;;;;;;2.17;93.05;102623.16;105729;1250;69931;-48
2024/01/28 05:26:06;;;;;;;;;;;;;;;2.17;93.16;102622.81;105655;1253;69999;-48
2024/01/28 05:28:34;;;;;;;;;;;;;;;2.18;93.24;102624.56;105688;1250;73436;-49
2024/01/28 05:31:02;;;;;;;;;;;;;;;2.20;93.12;102623.42;105688;1254;82925;-48
2024/01/28 05:33:34;;;;;;;;;;;;;;;2.18;93.01;102625.26;105624;1250;72139;-49
2024/01/28 05:36:02;;;;;;;;;;;;;;;2.17;93.16;102631.77;105651;1254;69912;-49
2024/01/28 05:38:30;;;;;;;;;;;;;;;2.15;92.70;102635.50;105680;1253;69996;-49
2024/01/28 05:40:59;;;;;;;;;;;;;;;2.07;92.28;102636.77;105552;1252;72918;-48
2024/01/28 05:43:27;;;;;;;;;;;;;;;1.97;92.25;102633.16;105755;1256;81643;-50
2024/01/28 05:45:55;;;;;;;;;;;;;;;1.91;92.29;102641.05;105521;1253;70357;-49
2024/01/28 05:48:23;;;;;;;;;;;;;;;1.82;91.90;102646.45;105613;1255;71436;-49
2024/01/28 05:50:51;;;;;;;;;;;;;;;1.68;91.60;102643.89;105586;1253;69983;-50
2024/01/28 05:53:19;;;;;;;;;;;;;;;1.64;91.83;102640.46;105614;1253;72927;-49
2024/01/28 05:55:47;;;;;;;;;;;;;;;1.58;91.83;102639.91;105614;1253;81261;-50
2024/01/28 05:58:16;;;;;;;;;;;;;;;1.44;91.36;102647.50;105537;1253;72941;-48
2024/01/28 06:00:44;;;;;;;;;;;;;;;1.35;91.55;102648.23;105556;1256;70038;-49
2024/01/28 06:03:13;;;;;;;;;;;;;;;1.25;91.15;102643.00;105629;1257;69942;-49
2024/01/28 06:05:41;;;;;;;;;;;;;;;1.12;91.11;102641.85;105584;1254;74720;-49
2024/01/28 06:08:10;;;;;;;;;;;;;;;1.06;91.69;102646.44;105548;1256;81448;-49
2024/01/28 06:10:38;;;;;;;;;;;;;;;1.00;91.62;102654.82;105615;1253;73131;-48
2024/01/28 06:13:06;;;;;;;;;;;;;;;0.92;91.70;102657.61;105597;1253;70068;-49
2024/01/28 06:15:34;;;;;;;;;;;;;;;0.85;91.52;102657.33;105567;1253;69897;-52
2024/01/28 06:18:02;;;;;;;;;;;;;;;0.76;91.40;102650.95;105703;1251;73002;-49
2024/01/28 06:20:35;;;;;;;;;;;;;;;0.69;91.50;102650.67;105719;1255;81840;-51
2024/01/28 06:23:04;;;;;;;;;;;;;;;0.59;91.28;102652.86;105611;1251;72209;-50
2024/01/28 06:25:32;;;;;;;;;;;;;;;0.52;91.38;102650.66;105576;1253;69981;-50
2024/01/28 06:28:00;;;;;;;;;;;;;;;0.45;91.36;102648.67;105641;1251;69978;-50
2024/01/28 06:30:29;;;;;;;;;;;;;;;0.39;91.44;102649.98;105585;1255;72725;-48
2024/01/28 06:32:57;;;;;;;;;;;;;;;0.34;91.69;102654.95;105625;1254;82083;-51
2024/01/28 06:35:25;;;;;;;;;;;;;;;0.30;91.78;102654.78;105758;1253;72150;-49
2024/01/28 06:37:53;;;;;;;;;;;;;;;0.28;92.13;102657.42;105817;1253;70039;-49
2024/01/28 06:40:21;;;;;;;;;;;;;;;0.27;92.21;102654.80;105542;1253;69876;-48
2024/01/28 06:42:49;;;;;;;;;;;;;;;0.31;92.95;102653.25;105598;1251;72769;-49
2024/01/28 06:45:19;;;;;;;;;;;;;;;0.36;93.46;102653.33;105589;1255;82762;-49
2024/01/28 06:47:47;;;;;;;;;;;;;;;0.44;93.96;102650.54;105706;1253;73204;-51
2024/01/28 06:50:15;;;;;;;;;;;;;;;0.49;94.08;102653.84;105757;1253;69975;-49
2024/01/28 06:52:43;;;;;;;;;;;;;;;0.55;94.35;102655.29;105565;1257;69999;-49
2024/01/28 06:55:12;;;;;;;;;;;;;;;0.59;94.33;102659.92;105572;1255;71303;-48
2024/01/28 06:57:40;;;;;;;;;;;;;;;0.63;94.30;102670.41;105704;1255;82798;-45
2024/01/28 07:00:13;;;;;;;;;;;;;;;0.66;94.38;102674.14;105627;1255;72277;-51
2024/01/28 07:02:44;;;;;;;;;;;;;;;0.70;94.40;102677.56;105664;1256;69961;-51
2024/01/28 07:05:12;;;;;;;;;;;;;;;0.75;94.59;102682.20;105665;1253;69974;-48
2024/01/28 07:07:40;;;;;;;;;;;;;;;0.79;94.45;102677.73;105547;1253;72160;-49
2024/01/28 07:10:09;;;;;;;;;;;;;;;0.81;94.58;102673.70;105785;1257;81054;-50
2024/01/28 07:12:38;;;;;;;;;;;;;;;0.83;94.51;102677.39;105546;1253;72974;-48
2024/01/28 07:15:06;;;;;;;;;;;;;;;0.85;94.58;102677.33;105698;1253;69968;-48
2024/01/28 07:17:35;;;;;;;;;;;;;;;0.88;94.70;102674.15;105659;1253;69984;-49
2024/01/28 07:20:03;;;;;;;;;;;;;;;0.91;94.64;102680.28;105556;1253;72905;-49
2024/01/28 07:22:31;;;;;;;;;;;;;;;0.95;94.76;102678.55;105761;1257;81909;-49
2024/01/28 07:24:59;;;;;;;;;;;;;;;0.98;94.63;102680.92;105546;1253;71612;-49
2024/01/28 07:27:28;;;;;;;;;;;;;;;1.01;94.84;102688.45;105711;1255;69978;-49
2024/01/28 07:29:56;;;;;;;;;;;;;;;1.05;94.82;102694.27;105511;1252;70022;-54
2024/01/28 07:32:24;;;;;;;;;;;;;;;1.10;95.08;102699.30;105564;1253;73406;-49
2024/01/28 07:34:52;;;;;;;;;;;;;;;1.19;95.01;102701.49;105602;1253;80339;-49
2024/01/28 07:37:21;;;;;;;;;;;;;;;1.24;95.02;102702.23;105538;1257;71890;-51
2024/01/28 07:39:49;;;;;;;;;;;;;;;1.30;95.01;102700.92;105667;1255;69982;-50
2024/01/28 07:42:17;;;;;;;;;;;;;;;1.38;94.91;102693.98;105617;1251;70000;-49
2024/01/28 07:44:48;;;;;;;;;;;;;;;1.45;95.02;102693.36;105788;1255;72712;-49
2024/01/28 07:47:16;;;;;;;;;;;;;;;1.50;94.83;102694.58;105867;1251;82169;-49
2024/01/28 07:49:44;;;;;;;;;;;;;;;1.53;94.93;102698.16;105661;1255;72986;-49
2024/01/28 07:52:13;;;;;;;;;;;;;;;1.57;94.72;102697.28;105686;1253;70000;-50
2024/01/28 07:54:41;;;;;;;;;;;;;;;1.59;94.77;102699.05;105660;1257;69713;-52
2024/01/28 07:57:09;;;;;;;;;;;;;;;1.60;94.69;102701.30;105624;1256;73252;-49
2024/01/28 07:59:37;;;;;;;;;;;;;;;1.62;94.82;102698.98;105534;1253;80659;-49
2024/01/28 08:02:05;;;;;;;;;;;;;;;1.66;94.72;102696.19;105683;1253;71993;-48
2024/01/28 08:04:33;;;;;;;;;;;;;;;1.69;94.76;102700.10;105723;1253;70043;-48
2024/01/28 08:07:02;;;;;;;;;;;;;;;1.72;95.01;102699.89;105872;1257;69993;-48
2024/01/28 08:09:31;;;;;;;;;;;;;;;1.78;95.29;102696.46;105572;1257;73150;-48
2024/01/28 08:12:00;;;;;;;;;;;;;;;1.81;95.22;102698.63;105598;1257;81795;-48
2024/01/28 08:14:28;;;;;;;;;;;;;;;1.86;95.21;102703.11;105661;1253;72950;-47
2024/01/28 08:16:56;;;;;;;;;;;;;;;1.91;95.32;102710.54;105698;1255;69925;-48
2024/01/28 08:19:24;;;;;;;;;;;;;;;1.97;95.58;102711.63;105642;1257;70045;-47
2024/01/28 08:21:53;;;;;;;;;;;;;;;2.03;95.76;102712.36;105646;1255;73512;-48
2024/01/28 08:24:21;;;;;;;;;;;;;;;2.09;95.55;102714.80;105710;1251;83920;-48
2024/01/28 08:26:50;;;;;;;;;;;;;;;2.14;95.51;102709.81;105861;1254;72020;-48
2024/01/28 08:29:18;;;;;;;;;;;;;;;2.21;95.24;102708.14;105779;1255;70349;-49
2024/01/28 08:31:46;;;;;;;;;;;;;;;2.29;95.31;102702.39;105608;1255;70450;-48
2024/01/28 08:34:14;;;;;;;;;;;;;;;2.37;95.40;102705.06;105646;1251;73519;-47
2024/01/28 08:36:42;;;;;;;;;;;;;;;2.42;95.18;102701.95;105734;1255;81857;-47
2024/01/28 08:39:14;;;;;;;;;;;;;;;2.50;95.40;102703.77;105588;1251;72491;-49
2024/01/28 08:41:42;;;;;;;;;;;;;;;2.57;95.30;102707.25;105691;1253;69952;-49
2024/01/28 08:44:10;;;;;;;;;;;;;;;2.64;95.39;102709.06;105530;1256;70061;-48
2024/01/28 08:46:41;;;;;;;;;;;;;;;2.72;95.52;102711.73;105584;1255;73501;-48
2024/01/28 08:49:09;;;;;;;;;;;;;;;2.77;95.42;102707.27;105708;1251;83032;-47
2024/01/28 08:51:38;;;;;;;;;;;;;;;2.83;95.31;102706.42;105654;1252;71287;-48
2024/01/28 08:54:06;;;;;;;;;;;;;;;2.91;95.44;102708.73;105738;1255;69918;-48
2024/01/28 08:56:35;;;;;;;;;;;;;;;2.98;95.00;102712.39;105614;1255;70055;-51
2024/01/28 08:59:03;;;;;;;;;;;;;;;3.04;95.39;102719.66;105608;1251;73736;-49
2024/01/28 09:01:31;;;;;;;;;;;;;;;3.06;94.76;102726.80;105588;1251;80304;-48
2024/01/28 09:03:59;;;;;;;;;;;;;;;3.07;94.69;102728.90;105733;1253;72897;-47
2024/01/28 09:06:27;;;;;;;;;;;;;;;3.07;94.80;102733.08;105819;1251;69964;-48
2024/01/28 09:08:56;;;;;;;;;;;;;;;3.09;94.90;102729.68;105679;1255;70426;-47
2024/01/28 09:11:24;;;;;;;;;;;;;;;3.11;94.72;102726.46;105628;1253;73106;-48
2024/01/28 09:13:52;;;;;;;;;;;;;;;3.13;94.67;102727.73;105633;1256;81143;-51
2024/01/28 09:16:20;;;;;;;;;;;;;;;3.17;94.60;102732.69;105595;1251;70211;-47
2024/01/28 09:18:48;;;;;;;;;;;;;;;3.20;94.55;102731.71;105739;1257;69939;-47
2024/01/28 09:21:16;;;;;;;;;;;;;;;3.22;94.46;102734.05;105529;1257;70007;-47
2024/01/28 09:23:45;;;;;;;;;;;;;;;3.27;94.42;102732.29;105672;1253;73610;-49
2024/01/28 09:26:13;;;;;;;;;;;;;;;3.33;94.66;102731.11;105777;1256;82797;-48
2024/01/28 09:28:41;;;;;;;;;;;;;;;3.41;94.50;102730.10;105548;1255;70779;-48
2024/01/28 09:32:47;;;;;;;14.20;5.50;;;;;;;3.51;94.48;102729.04;102276;1292;600629;-47
2024/01/28 09:35:16;;;;;;;13.30;4.80;;;;;;;3.51;94.45;102733.18;104786;1271;69968;-49
2024/01/28 09:37:44;;;;;;;14.90;5.30;;;;;;;3.57;94.56;102729.38;104666;1270;70000;-46
2024/01/28 09:40:13;;;;;;;10.90;4.70;;;;;;;3.65;94.40;102732.38;104716;1266;70534;-46
2024/01/28 09:42:53;;;;;;;16.70;5.30;;;;;;;3.71;94.39;102733.24;104660;1271;81388;-47
2024/01/28 09:45:21;;;;;;;15.90;5.30;;;;;;;3.78;94.44;102737.43;104554;1266;215879;-47
2024/01/28 09:47:49;;;;;;;14.60;4.90;;;;;;;3.85;94.29;102743.16;105605;1264;69920;-47
2024/01/28 09:50:18;;;;;;;18.60;6.70;;;;;;;3.91;93.94;102743.31;104668;1268;70680;-47
2024/01/28 09:52:47;;;;;;;16.30;5.60;;;;;;;3.95;93.86;102746.02;106095;1264;70514;-46
2024/01/28 09:55:15;;;;;;;15.10;6.50;;;;;;;4.01;93.99;102749.31;104636;1268;81792;-49
2024/01/28 09:57:43;;;;;;;19.90;7.10;;;;;;;4.09;94.17;102751.25;104676;1264;73113;-48
2024/01/28 10:00:12;;;;;;;20.90;8.60;;;;;;;4.13;93.84;102747.04;104926;1268;70038;-48
2024/01/28 10:02:41;;;;;;;20.60;7.20;;;;;;;4.20;93.72;102745.31;104841;1264;70000;-47
2024/01/28 10:05:14;;;;;;;19.90;8.50;;;;;;;4.32;94.03;102748.91;104686;1264;73477;-48
2024/01/28 10:07:47;;;;;;;23.40;10.40;;;;;;;4.43;93.64;102748.70;104820;1264;80439;-47
2024/01/28 10:10:17;;;;;;;44.90;21.10;;;;;;;4.54;93.88;102743.79;104828;1268;71292;-50
2024/01/28 10:12:47;;;;;;;55.00;25.90;;;;;;;4.68;93.82;102739.12;104871;1268;70006;-47
2024/01/28 10:15:17;;;;;;;40.80;21.20;;;;;;;4.84;93.62;102740.90;104913;1264;69832;-49
2024/01/28 10:17:48;;;;;;;27.90;11.80;;;;;;;5.04;93.50;102741.19;104764;1264;71539;-48
2024/01/28 10:20:20;;;;;;;24.60;11.10;;;;;;;5.43;93.85;102738.08;104732;1264;80599;-47
2024/01/28 10:22:48;;;;;;;;;;;;;;;5.93;93.94;102729.92;104788;1267;70755;-48
2024/01/28 10:25:17;;;;;;;17.20;8.40;;;;;;;6.44;94.04;102718.36;104754;1268;70346;-48
2024/01/28 10:27:46;;;;;;;20.80;8.00;;;;;;;6.91;93.99;102712.02;104743;1264;69933;-48
2024/01/28 10:30:16;;;;;;;18.30;7.20;;;;;;;7.32;93.36;102714.33;104829;1266;71907;-48
2024/01/28 10:32:45;;;;;;;18.10;7.20;;;;;;;7.67;92.75;102713.20;104770;1265;82957;-49
2024/01/28 10:35:16;;;;;;;18.20;6.50;;;;;;;7.86;91.44;102711.17;104761;1264;71802;-49
2024/01/28 10:37:51;;;;;;;18.40;7.30;;;;;;;8.02;90.48;102712.74;104779;1266;70369;-49
2024/01/28 10:40:20;;;;;;;17.50;6.50;;;;;;;8.19;90.25;102708.89;105126;1259;69984;-48
2024/01/28 10:42:49;;;;;;;22.10;7.60;;;;;;;8.47;90.21;102708.67;105163;1257;71216;-51
2024/01/28 10:45:19;;;;;;;19.10;7.00;;;;;;;8.64;89.31;102708.13;105156;1260;81516;-49
2024/01/28 10:47:55;;;;;;;22.40;8.10;;;;;;;8.84;89.08;102705.65;105101;1257;73695;-48
2024/01/28 10:50:25;;;;;;;21.30;7.20;;;;;;;9.04;88.34;102704.04;105095;1259;69968;-49
2024/01/28 10:52:54;;;;;;;17.50;7.50;;;;;;;9.17;87.73;102703.95;105135;1261;70430;-48
2024/01/28 10:55:22;;;;;;;18.80;7.90;;;;;;;9.31;87.62;102699.84;105211;1257;71257;-48
2024/01/28 10:57:53;;;;;;;19.10;7.90;;;;;;;9.54;87.47;102696.27;105155;1261;81435;-48
2024/01/28 11:00:22;;;;;;;19.30;7.60;;;;;;;9.75;86.89;102684.65;105132;1257;71955;-49
2024/01/28 11:02:50;;;;;;;19.70;8.10;;;;;;;9.81;85.60;102673.49;105316;1259;69938;-48
2024/01/28 11:05:19;;;;;;;20.90;8.00;;;;;;;9.87;84.91;102668.79;105168;1262;69898;-53
2024/01/28 11:07:48;;;;;;;20.80;7.90;;;;;;;9.92;84.54;102665.48;105267;1258;71513;-51
2024/01/28 11:10:18;;;;;;;18.50;7.70;;;;;;;10.02;84.34;102661.83;105196;1259;81672;-49
2024/01/28 11:12:47;;;;;;;18.50;8.10;;;;;;;10.08;83.85;102660.79;105123;1258;71768;-50
2024/01/28 11:15:19;;;;;;;21.90;9.30;;;;;;;10.13;83.18;102663.23;105073;1258;69966;-50
2024/01/28 11:17:47;;;;;;;20.10;9.40;;;;;;;10.06;82.33;102657.82;105132;1257;69918;-49
2024/01/28 11:20:23;;;;;;;21.00;8.40;;;;;;;9.95;82.25;102658.51;105120;1259;71733;-49
2024/01/28 11:22:56;;;;;;;20.20;8.90;;;;;;;10.12;83.00;102660.98;105087;1259;82281;-49
2024/01/28 11:25:26;;;;;;;20.80;8.80;;;;;;;10.21;81.77;102660.11;105124;1257;73028;-50
2024/01/28 11:28:00;;;;;;;19.60;8.10;;;;;;;10.11;80.98;102654.86;105101;1262;70111;-49
2024/01/28 11:30:29;;;;;;;22.80;9.10;;;;;;;10.22;81.25;102653.99;105072;1261;69910;-50
2024/01/28 11:33:15;;;;;;;23.80;9.00;;;;;;;10.55;81.31;102644.56;105118;1259;71428;-50
2024/01/28 11:35:44;;;;;;;17.30;8.10;;;;;;;10.95;80.41;102642.92;105101;1259;81582;-49
2024/01/28 11:38:19;;;;;;;21.80;8.60;;;;;;;11.22;79.50;102639.52;105129;1257;73134;-49
2024/01/28 11:40:55;;;;;;;15.20;7.40;;;;;;;11.43;79.04;102636.27;105124;1259;69971;-49
2024/01/28 11:43:23;;;;;;;23.50;8.00;;;;;;;11.67;78.01;102635.96;105118;1262;69933;-48
2024/01/28 11:45:52;;;;;;;18.50;7.90;;;;;;;11.84;77.66;102627.46;105074;1259;71735;-49
2024/01/28 11:48:21;;;;;;;20.80;8.60;;;;;;;12.20;78.02;102625.12;105165;1262;82766;-49
2024/01/28 11:50:50;;;;;;;15.40;6.70;;;;;;;12.63;78.38;102627.02;105128;1258;73034;-49
2024/01/28 11:53:18;;;;;;;12.70;5.70;;;;;;;12.93;77.05;102626.68;105208;1262;69942;-48
2024/01/28 11:55:46;;;;;;;14.40;6.00;;;;;;;12.98;75.94;102624.00;105085;1261;70044;-48
2024/01/28 11:58:16;;;;;;;17.60;6.60;;;;;;;13.11;75.66;102619.45;105087;1257;71606;-48
2024/01/28 12:00:44;;;;;;;15.30;5.60;;;;;;;13.32;75.61;102610.62;105103;1257;82528;-51
2024/01/28 12:03:13;;;;;;;13.70;5.30;;;;;;;13.54;75.89;102609.79;105086;1262;73164;-49
2024/01/28 12:05:41;;;;;;;15.90;6.60;;;;;;;13.58;75.49;102603.05;105176;1259;69997;-48
2024/01/28 12:08:09;;;;;;;16.80;5.70;;;;;;;13.49;74.94;102608.63;105155;1260;70118;-50
2024/01/28 12:10:38;;;;;;;15.60;6.00;;;;;;;13.26;74.21;102618.58;105169;1256;72722;-48
2024/01/28 12:13:09;;;;;;;15.70;5.70;;;;;;;12.96;73.21;102616.30;105175;1260;82552;-49
2024/01/28 12:15:38;;;;;;;17.00;6.20;;;;;;;12.65;72.79;102615.75;105164;1256;72536;-48
2024/01/28 12:18:07;;;;;;;19.30;6.00;;;;;;;12.44;72.32;102612.63;105195;1256;70069;-50
2024/01/28 12:20:35;;;;;;;19.50;8.00;;;;;;;12.32;72.75;102605.73;105192;1260;70016;-48
2024/01/28 12:23:04;;;;;;;16.60;6.20;;;;;;;12.28;72.66;102598.92;105149;1256;71555;-48
2024/01/28 12:25:35;;;;;;;15.90;5.20;;;;;;;12.18;72.59;102589.02;105182;1260;83611;-49